Aviation Digital Data Service (ADDS)

Output produced by METARs form (0237 UTC 29 July 2015)
found at http://aviationweather.gov/adds/metars/
 
KMHT 282320Z 2900/2924 30005KT P6SM SCT250